Impacts TAF Board
For situational awareness. Not to be used for flight planning purposes.
IDs:

KIAH - Houston/Bush Intl, TX, US

Issued at 0904 UTC 15 Dec 2018
Updated at 1106 UTC 15 Dec 2018
Potential Impact None Slight Moderate High
Time1053Z 15/12Z 15/13Z 15/14Z 15/15Z 15/16Z 15/17Z 15/18Z 15/19Z 15/20Z 15/21Z 15/22Z 15/23Z 16/00Z>>
Type OBS PRVL PRVL PRVL PRVL PRVL PRVL PRVL PRVL PRVL PRVL PRVL PRVL PRVL
VIS 10 >6 >6 >6 >6 >6 >6 >6 >6 >6 >6 >6 >6 >6
CIG -- 18 18 -- -- -- -- -- -- -- -- -- -- --
Cover SCT OVC OVC SCT SCT SCT SCT SKC SKC SKC SKC SKC SKC SKC
FltCat VFR MVFR MVFR VFR VFR VFR VFR VFR VFR VFR VFR VFR VFR VFR
WX -- -- -- -- -- -- -- -- -- -- -- -- -- --
WDir 240 310 310 300 300 300 300 320 320 320 320 320 320 320
WSpd 4 9 9 6 6 6 6 11 11 11 11 11 11 11
WGst -- -- -- 16 16 16 16 17 17 17 17 17 17 17
Raw TAF
KIAH 150904Z 1509/1612 31009KT P6SM OVC018
  FM151400 30006G16KT P6SM SCT022
  FM151800 32011G17KT P6SM SKC
  FM160200 32005KT P6SM SCT250


Raw METAR
KIAH 151053Z 24004KT 10SM FEW020 SCT030 09/07 A3009 RMK AO2 SLP191 T00890072 $
KIAH 151006Z 29004KT 10SM SCT020 BKN030 09/07 A3008 RMK AO2 T00940072 $
KIAH 150953Z 30006KT 10SM OVC018 10/08 A3008 RMK AO2 SLP186 T01000078 $
KIAH 150853Z 31009KT 10SM OVC017 11/08 A3008 RMK AO2 SLP188 T01060078 50004 $

METAR Board
Radar Display
Forecast Discussion
For situational awareness. Not to be used for flight planning purposes.